createdAt,value
2018-07-15T00:01:26.745Z,99.50
2018-07-15T00:03:54.345Z,99.40
2018-07-15T00:06:21.924Z,99.40
2018-07-15T00:08:49.454Z,99.50
2018-07-15T00:11:17.000Z,99.60
2018-07-15T00:13:44.531Z,99.50
2018-07-15T00:16:12.083Z,99.50
2018-07-15T00:18:39.640Z,99.40
2018-07-15T00:21:07.382Z,99.50
2018-07-15T00:23:35.026Z,99.60
2018-07-15T00:26:02.598Z,99.70
2018-07-15T00:28:30.153Z,99.80
2018-07-15T00:30:57.716Z,99.90
2018-07-15T00:33:25.253Z,99.90
2018-07-15T00:35:52.785Z,99.90
2018-07-15T00:38:20.314Z,99.90
2018-07-15T00:40:47.873Z,99.90
2018-07-15T00:43:15.413Z,99.90
2018-07-15T00:45:43.000Z,99.90
2018-07-15T00:48:10.549Z,99.90
2018-07-15T00:50:38.134Z,99.90
2018-07-15T00:53:05.728Z,99.90
2018-07-15T00:55:33.271Z,99.90
2018-07-15T00:58:00.838Z,99.90
2018-07-15T01:00:33.921Z,99.90
2018-07-15T01:03:01.746Z,99.90
2018-07-15T01:05:29.253Z,99.90
2018-07-15T01:07:56.856Z,99.90
2018-07-15T01:10:24.407Z,99.90
2018-07-15T01:12:51.965Z,99.90
2018-07-15T01:15:19.525Z,99.90
2018-07-15T01:17:47.053Z,99.90
2018-07-15T01:20:14.752Z,99.90
2018-07-15T01:22:42.278Z,99.90
2018-07-15T01:25:09.817Z,99.90
2018-07-15T01:27:37.436Z,99.90
2018-07-15T01:30:04.995Z,99.90
2018-07-15T01:32:32.763Z,99.90
2018-07-15T01:35:00.303Z,99.90
2018-07-15T01:37:27.865Z,99.90
2018-07-15T01:39:55.460Z,99.90
2018-07-15T01:42:23.009Z,99.90
2018-07-15T01:44:50.554Z,99.90
2018-07-15T01:47:18.078Z,99.90
2018-07-15T01:49:45.589Z,99.90
2018-07-15T01:52:13.154Z,99.90
2018-07-15T01:54:40.685Z,99.90
2018-07-15T01:57:08.245Z,99.90
2018-07-15T01:59:35.820Z,99.90
2018-07-15T02:02:03.406Z,99.90
2018-07-15T02:04:30.930Z,99.90
2018-07-15T02:06:58.491Z,99.90
2018-07-15T02:09:26.036Z,99.90
2018-07-15T02:11:53.653Z,99.90
2018-07-15T02:14:21.253Z,99.90
2018-07-15T02:16:48.813Z,99.90
2018-07-15T02:19:16.331Z,99.90
2018-07-15T02:24:11.387Z,99.90
2018-07-15T02:29:06.559Z,99.90
2018-07-15T02:31:35.047Z,99.90
2018-07-15T02:34:02.692Z,99.90
2018-07-15T02:38:57.749Z,99.90
2018-07-15T02:41:25.304Z,99.90
2018-07-15T02:43:52.842Z,99.90
2018-07-15T02:46:20.376Z,99.90
2018-07-15T02:48:47.934Z,99.90
2018-07-15T02:51:15.482Z,99.90
2018-07-15T02:53:43.042Z,99.90
2018-07-15T02:56:10.573Z,99.90
2018-07-15T02:58:38.149Z,99.90
2018-07-15T03:01:05.708Z,99.90
2018-07-15T03:03:33.212Z,99.90
2018-07-15T03:06:00.738Z,99.90
2018-07-15T03:08:28.311Z,99.90
2018-07-15T03:10:55.820Z,99.90
2018-07-15T03:13:23.354Z,99.90
2018-07-15T03:15:50.900Z,99.90
2018-07-15T03:18:18.456Z,99.90
2018-07-15T03:20:46.020Z,99.90
2018-07-15T03:23:13.994Z,99.90
2018-07-15T03:25:41.651Z,99.90
2018-07-15T03:28:09.315Z,99.90
2018-07-15T03:30:36.933Z,99.90
2018-07-15T03:33:04.526Z,99.90
2018-07-15T03:35:32.067Z,99.90
2018-07-15T03:37:59.597Z,99.90
2018-07-15T03:40:27.130Z,99.90
2018-07-15T03:42:54.682Z,99.90
2018-07-15T03:45:22.241Z,99.90
2018-07-15T03:47:49.785Z,99.90
2018-07-15T03:50:17.311Z,99.90
2018-07-15T03:52:44.873Z,99.90
2018-07-15T03:55:12.410Z,99.90
2018-07-15T03:57:40.281Z,99.90
2018-07-15T04:00:07.957Z,99.90
2018-07-15T04:02:35.535Z,99.90
2018-07-15T04:05:03.169Z,99.90
2018-07-15T04:07:30.681Z,99.90
2018-07-15T04:09:58.518Z,99.90
2018-07-15T04:12:26.115Z,99.90
2018-07-15T04:14:53.649Z,99.90
2018-07-15T04:17:21.248Z,99.90
2018-07-15T04:19:48.799Z,99.90
2018-07-15T04:22:16.332Z,99.90
2018-07-15T04:24:43.891Z,99.90
2018-07-15T04:27:11.421Z,99.90
2018-07-15T04:29:38.978Z,99.90
2018-07-15T04:32:06.537Z,99.90
2018-07-15T04:34:34.087Z,99.90
2018-07-15T04:37:01.645Z,99.90
2018-07-15T04:39:29.220Z,99.90
2018-07-15T04:41:56.765Z,99.90
2018-07-15T04:44:24.362Z,99.90
2018-07-15T04:46:51.926Z,99.90
2018-07-15T04:49:19.454Z,99.90
2018-07-15T04:51:47.018Z,99.90
2018-07-15T04:54:14.618Z,99.90
2018-07-15T04:56:42.176Z,99.90
2018-07-15T04:59:09.750Z,99.90
2018-07-15T05:01:40.966Z,99.90
2018-07-15T05:04:08.564Z,99.90
2018-07-15T05:06:36.088Z,99.90
2018-07-15T05:09:04.654Z,99.90
2018-07-15T05:11:32.270Z,99.90
2018-07-15T05:13:59.812Z,99.90
2018-07-15T05:16:27.386Z,99.90
2018-07-15T05:18:54.889Z,99.90
2018-07-15T05:21:22.432Z,99.90
2018-07-15T05:23:49.958Z,99.90
2018-07-15T05:26:17.558Z,99.90
2018-07-15T05:28:45.082Z,99.90
2018-07-15T05:31:12.628Z,99.90
2018-07-15T05:33:40.158Z,99.90
2018-07-15T05:36:07.770Z,99.90
2018-07-15T05:38:35.291Z,99.90
2018-07-15T05:41:02.840Z,99.90
2018-07-15T05:43:30.370Z,99.90
2018-07-15T05:45:57.890Z,99.90
2018-07-15T05:48:25.499Z,99.90
2018-07-15T05:50:53.237Z,99.90
2018-07-15T05:53:20.845Z,99.90
2018-07-15T05:55:48.414Z,99.70
2018-07-15T05:58:15.956Z,99.30
2018-07-15T06:00:43.556Z,98.90
2018-07-15T06:03:11.071Z,98.60
2018-07-15T06:05:38.639Z,98.10
2018-07-15T06:08:06.175Z,97.90
2018-07-15T06:10:33.727Z,97.80
2018-07-15T06:13:01.285Z,97.80
2018-07-15T06:15:28.840Z,97.80
2018-07-15T06:17:56.397Z,97.80
2018-07-15T06:20:23.945Z,97.90
2018-07-15T06:22:51.881Z,98.00
2018-07-15T06:25:19.350Z,98.00
2018-07-15T06:27:46.907Z,98.10
2018-07-15T06:30:14.439Z,98.30
2018-07-15T06:32:42.004Z,98.40
2018-07-15T06:35:09.566Z,98.30
2018-07-15T06:37:37.121Z,98.10
2018-07-15T06:40:04.862Z,97.90
2018-07-15T06:42:32.437Z,97.70
2018-07-15T06:45:00.002Z,97.60
2018-07-15T06:47:27.550Z,97.40
2018-07-15T06:49:55.122Z,97.30
2018-07-15T06:52:22.744Z,97.20
2018-07-15T06:54:50.304Z,96.90
2018-07-15T06:57:17.853Z,96.90
2018-07-15T06:59:45.422Z,96.40
2018-07-15T07:02:12.972Z,96.10
2018-07-15T07:04:40.706Z,95.80
2018-07-15T07:07:08.270Z,95.60
2018-07-15T07:09:35.808Z,95.30
2018-07-15T07:12:03.423Z,95.00
2018-07-15T07:14:30.971Z,94.60
2018-07-15T07:16:58.537Z,94.10
2018-07-15T07:19:26.099Z,93.90
2018-07-15T07:21:53.916Z,94.00
2018-07-15T07:24:21.502Z,94.30
2018-07-15T07:26:49.054Z,94.10
2018-07-15T07:29:16.682Z,93.70
2018-07-15T07:31:44.260Z,93.70
2018-07-15T07:34:11.805Z,93.70
2018-07-15T07:36:39.374Z,93.80
2018-07-15T07:39:07.026Z,93.30
2018-07-15T07:41:34.772Z,93.10
2018-07-15T07:44:02.384Z,92.90
2018-07-15T07:46:29.916Z,92.70
2018-07-15T07:48:57.476Z,92.30
2018-07-15T07:51:25.086Z,92.10
2018-07-15T07:53:52.666Z,92.10
2018-07-15T07:56:20.250Z,91.60
2018-07-15T07:58:47.897Z,91.50
2018-07-15T08:01:15.500Z,91.40
2018-07-15T08:03:43.036Z,91.20
2018-07-15T08:06:10.600Z,91.40
2018-07-15T08:08:38.146Z,91.30
2018-07-15T08:11:05.774Z,91.00
2018-07-15T08:13:33.412Z,90.60
2018-07-15T08:16:00.969Z,89.90
2018-07-15T08:18:28.506Z,89.00
2018-07-15T08:20:56.095Z,88.70
2018-07-15T08:23:23.611Z,88.60
2018-07-15T08:25:51.273Z,88.20
2018-07-15T08:28:18.912Z,88.20
2018-07-15T08:30:57.696Z,87.60
2018-07-15T08:33:25.246Z,87.80
2018-07-15T08:35:52.813Z,86.80
2018-07-15T08:38:20.378Z,85.70
2018-07-15T08:40:48.011Z,84.50
2018-07-15T08:43:15.531Z,84.10
2018-07-15T08:45:43.063Z,83.40
2018-07-15T08:48:10.653Z,81.70
2018-07-15T08:50:38.233Z,81.40
2018-07-15T08:53:05.817Z,81.70
2018-07-15T08:55:33.367Z,82.30
2018-07-15T08:58:00.935Z,80.40
2018-07-15T09:00:28.495Z,79.10
2018-07-15T09:02:56.128Z,78.90
2018-07-15T09:05:23.680Z,77.20
2018-07-15T09:07:51.749Z,75.00
2018-07-15T09:10:19.479Z,75.70
2018-07-15T09:12:47.234Z,75.70
2018-07-15T09:15:14.794Z,75.40
2018-07-15T09:17:42.393Z,74.00
2018-07-15T09:20:09.973Z,73.50
2018-07-15T09:22:37.520Z,74.20
2018-07-15T09:25:05.120Z,73.70
2018-07-15T09:27:32.677Z,71.00
2018-07-15T09:30:00.300Z,70.80
2018-07-15T09:32:27.885Z,70.60
2018-07-15T09:34:55.443Z,69.70
2018-07-15T09:37:29.596Z,69.50
2018-07-15T09:39:57.138Z,70.10
2018-07-15T09:42:24.689Z,70.60
2018-07-15T09:44:52.240Z,72.10
2018-07-15T09:47:19.828Z,71.10
2018-07-15T09:52:14.872Z,69.50
2018-07-15T09:54:42.426Z,67.50
2018-07-15T09:57:10.067Z,65.00
2018-07-15T09:59:37.758Z,63.30
2018-07-15T10:02:05.504Z,60.90
2018-07-15T10:04:33.283Z,61.00
2018-07-15T10:07:00.966Z,61.30
2018-07-15T10:09:28.941Z,62.20
2018-07-15T10:11:56.927Z,61.50
2018-07-15T10:14:24.671Z,60.30
2018-07-15T10:16:52.223Z,59.00
2018-07-15T10:19:19.793Z,58.40
2018-07-15T10:21:47.365Z,57.00
2018-07-15T10:24:14.913Z,56.70
2018-07-15T10:26:42.691Z,57.30
2018-07-15T10:29:10.166Z,57.50
2018-07-15T10:31:37.724Z,58.20
2018-07-15T10:34:05.308Z,58.90
2018-07-15T10:36:32.880Z,59.00
2018-07-15T10:39:00.444Z,58.70
2018-07-15T10:41:28.379Z,58.50
2018-07-15T10:43:55.919Z,58.70
2018-07-15T10:46:23.568Z,58.40
2018-07-15T10:48:51.120Z,58.90
2018-07-15T10:51:18.718Z,59.00
2018-07-15T10:53:46.466Z,57.30
2018-07-15T10:56:14.010Z,54.50
2018-07-15T10:58:41.557Z,53.30
2018-07-15T11:01:09.917Z,51.30
2018-07-15T11:03:37.370Z,49.90
2018-07-15T11:06:05.034Z,50.50
2018-07-15T11:08:32.622Z,50.90
2018-07-15T11:11:00.170Z,51.00
2018-07-15T11:13:27.832Z,51.80
2018-07-15T11:15:55.395Z,52.10
2018-07-15T11:18:23.330Z,51.90
2018-07-15T11:20:50.905Z,50.60
2018-07-15T11:23:18.509Z,48.90
2018-07-15T11:25:46.089Z,47.10
2018-07-15T11:28:13.587Z,45.10
2018-07-15T11:30:41.293Z,43.70
2018-07-15T11:33:09.472Z,42.80
2018-07-15T11:35:37.029Z,42.30
2018-07-15T11:38:04.575Z,41.30
2018-07-15T11:40:32.247Z,40.80
2018-07-15T11:42:59.825Z,40.90
2018-07-15T11:45:27.429Z,40.40
2018-07-15T11:47:54.976Z,39.10
2018-07-15T11:50:22.570Z,38.20
2018-07-15T11:52:50.154Z,38.10
2018-07-15T11:55:17.636Z,38.60
2018-07-15T11:57:46.910Z,38.80
2018-07-15T12:00:14.830Z,38.40
2018-07-15T12:02:42.561Z,38.00
2018-07-15T12:05:10.142Z,38.50
2018-07-15T12:07:37.811Z,37.30
2018-07-15T12:10:05.844Z,35.90
2018-07-15T12:12:33.442Z,36.20
2018-07-15T12:15:00.989Z,35.30
2018-07-15T12:17:28.560Z,34.70
2018-07-15T12:19:56.109Z,34.00
2018-07-15T12:22:23.683Z,33.70
2018-07-15T12:24:51.234Z,32.60
2018-07-15T12:27:18.832Z,32.50
2018-07-15T12:29:46.380Z,32.70
2018-07-15T12:34:41.531Z,34.20
2018-07-15T12:37:09.091Z,35.40
2018-07-15T12:42:04.185Z,37.30
2018-07-15T12:44:31.852Z,38.00
2018-07-15T12:46:59.412Z,39.30
2018-07-15T12:49:27.038Z,39.80
2018-07-15T12:51:54.715Z,40.20
2018-07-15T12:54:22.302Z,40.40
2018-07-15T12:59:17.366Z,41.20
2018-07-15T13:01:44.906Z,41.30
2018-07-15T13:04:12.505Z,41.60
2018-07-15T13:06:40.168Z,42.30
2018-07-15T13:09:07.754Z,43.10
2018-07-15T13:11:35.464Z,43.70
2018-07-15T13:14:03.048Z,44.20
2018-07-15T13:16:30.733Z,44.70
2018-07-15T13:18:58.287Z,45.10
2018-07-15T13:21:25.860Z,45.40
2018-07-15T13:23:53.436Z,45.90
2018-07-15T13:26:21.018Z,46.40
2018-07-15T13:28:48.518Z,46.50
2018-07-15T13:31:16.170Z,46.60
2018-07-15T13:33:43.761Z,47.00
2018-07-15T13:36:11.357Z,47.20
2018-07-15T13:38:38.914Z,47.10
2018-07-15T13:41:06.539Z,45.80
2018-07-15T13:43:34.122Z,44.50
2018-07-15T13:46:01.737Z,43.00
2018-07-15T13:48:29.350Z,42.80
2018-07-15T13:50:56.977Z,42.80
2018-07-15T13:53:24.500Z,43.20
2018-07-15T13:55:52.105Z,42.90
2018-07-15T13:58:19.680Z,42.60
2018-07-15T14:03:14.802Z,43.10
2018-07-15T14:05:42.358Z,43.00
2018-07-15T14:08:10.046Z,43.80
2018-07-15T14:10:37.679Z,44.60
2018-07-15T14:13:05.245Z,45.20
2018-07-15T14:15:32.808Z,45.60
2018-07-15T14:18:00.364Z,46.50
2018-07-15T14:20:27.953Z,46.90
2018-07-15T14:22:55.498Z,47.70
2018-07-15T14:25:23.111Z,48.10
2018-07-15T14:27:50.768Z,49.90
2018-07-15T14:30:18.302Z,51.60
2018-07-15T14:32:45.855Z,52.50
2018-07-15T14:35:13.415Z,53.30
2018-07-15T14:37:41.103Z,53.90
2018-07-15T14:40:08.676Z,54.30
2018-07-15T14:42:36.241Z,54.30
2018-07-15T14:45:04.056Z,54.50
2018-07-15T14:47:31.634Z,54.50
2018-07-15T14:49:59.200Z,55.00
2018-07-15T14:52:26.817Z,53.00
2018-07-15T14:54:54.369Z,51.60
2018-07-15T14:57:21.932Z,51.20
2018-07-15T14:59:49.457Z,51.60
2018-07-15T15:02:17.003Z,52.50
2018-07-15T15:04:44.628Z,56.90
2018-07-15T15:07:12.223Z,59.90
2018-07-15T15:12:07.309Z,67.30
2018-07-15T15:14:34.928Z,70.80
2018-07-15T15:17:02.530Z,74.00
2018-07-15T15:19:30.126Z,75.40
2018-07-15T15:21:57.756Z,79.20
2018-07-15T15:24:25.363Z,86.00
2018-07-15T15:26:52.940Z,84.10
2018-07-15T15:29:20.526Z,85.70
2018-07-15T15:31:48.157Z,89.20
2018-07-15T15:36:43.338Z,90.70
2018-07-15T15:39:10.884Z,92.40
2018-07-15T15:41:38.458Z,93.70
2018-07-15T15:46:33.602Z,95.90
2018-07-15T15:53:56.351Z,96.90
2018-07-15T15:56:23.930Z,97.40
2018-07-15T15:58:51.574Z,97.80
2018-07-15T16:01:19.172Z,98.50
2018-07-15T16:03:46.742Z,98.80
2018-07-15T16:06:14.361Z,99.00
2018-07-15T16:08:41.929Z,98.90
2018-07-15T16:11:09.525Z,98.60
2018-07-15T16:13:37.082Z,98.90
2018-07-15T16:16:04.720Z,99.50
2018-07-15T16:18:32.384Z,99.90
2018-07-15T16:20:59.924Z,99.60
2018-07-15T16:23:27.535Z,99.40
2018-07-15T16:25:55.102Z,99.70
2018-07-15T16:28:22.723Z,99.90
2018-07-15T16:30:50.312Z,99.90
2018-07-15T16:33:17.922Z,99.90
2018-07-15T16:35:45.499Z,99.90
2018-07-15T16:38:13.111Z,99.90
2018-07-15T16:40:40.777Z,99.90
2018-07-15T16:43:08.382Z,99.90
2018-07-15T16:45:35.983Z,99.90
2018-07-15T16:48:03.581Z,99.90
2018-07-15T16:50:31.150Z,99.90
2018-07-15T16:52:58.769Z,99.90
2018-07-15T16:55:26.392Z,99.90
2018-07-15T16:57:54.042Z,99.90
2018-07-15T17:00:21.630Z,99.90
2018-07-15T17:02:49.333Z,99.90
2018-07-15T17:05:17.002Z,99.90
2018-07-15T17:07:44.598Z,99.90
2018-07-15T17:10:12.240Z,99.90
2018-07-15T17:12:39.890Z,99.70
2018-07-15T17:15:07.548Z,98.80
2018-07-15T17:17:35.194Z,97.10
2018-07-15T17:22:30.349Z,94.10
2018-07-15T17:24:57.913Z,93.50
2018-07-15T17:27:25.512Z,93.30
2018-07-15T17:29:53.101Z,93.00
2018-07-15T17:32:20.818Z,92.70
2018-07-15T17:34:48.438Z,92.20
2018-07-15T17:37:16.101Z,91.80
2018-07-15T17:39:43.770Z,91.70
2018-07-15T17:42:11.488Z,92.00
2018-07-15T17:44:39.191Z,92.30
2018-07-15T17:47:06.874Z,92.70
2018-07-15T17:49:34.532Z,93.20
2018-07-15T17:52:02.877Z,93.80
2018-07-15T17:54:30.584Z,94.30
2018-07-15T17:56:58.337Z,95.00
2018-07-15T17:59:26.523Z,96.10
2018-07-15T18:01:54.220Z,97.10
2018-07-15T18:04:21.950Z,98.00
2018-07-15T18:06:50.140Z,98.80
2018-07-15T18:09:17.826Z,99.30
2018-07-15T18:11:45.479Z,99.50
2018-07-15T18:14:13.677Z,99.70
2018-07-15T18:16:41.361Z,99.90
2018-07-15T18:19:09.998Z,99.90
2018-07-15T18:21:37.703Z,99.90
2018-07-15T18:24:05.394Z,99.90
2018-07-15T18:33:55.807Z,99.90
2018-07-15T18:36:23.524Z,99.90
2018-07-15T18:38:51.292Z,99.90
2018-07-15T18:41:19.037Z,99.90
2018-07-15T18:43:46.813Z,99.90
2018-07-15T18:46:14.543Z,99.90
2018-07-15T18:48:42.237Z,99.90
2018-07-15T18:51:10.035Z,99.90
2018-07-15T18:53:37.831Z,99.90
2018-07-15T18:56:05.644Z,99.90
2018-07-15T18:58:34.476Z,99.90
2018-07-15T19:01:02.154Z,99.90
2018-07-15T19:03:29.875Z,99.90
2018-07-15T19:05:58.277Z,99.90
2018-07-15T19:08:26.676Z,99.90
2018-07-15T19:10:55.235Z,99.90
2018-07-15T19:13:22.974Z,99.90
2018-07-15T19:15:50.808Z,99.90
2018-07-15T19:18:19.134Z,99.90
2018-07-15T19:20:46.932Z,99.90
2018-07-15T19:23:14.664Z,99.90
2018-07-15T19:25:42.405Z,99.90
2018-07-15T19:28:10.099Z,99.90
2018-07-15T19:30:37.918Z,99.90
2018-07-15T19:33:05.916Z,99.90
2018-07-15T19:35:33.591Z,99.90
2018-07-15T19:38:01.421Z,99.90
2018-07-15T19:40:29.161Z,99.90
2018-07-15T19:42:56.890Z,99.90
2018-07-15T19:45:24.611Z,99.90
2018-07-15T19:47:52.324Z,99.90
2018-07-15T19:50:20.051Z,99.90
2018-07-15T19:52:48.032Z,99.90
2018-07-15T19:55:16.280Z,99.90
2018-07-15T19:57:44.194Z,99.90
2018-07-15T20:00:11.922Z,99.90
2018-07-15T20:02:39.689Z,99.90
2018-07-15T20:05:07.716Z,99.90
2018-07-15T20:07:35.462Z,99.90
2018-07-15T20:10:03.984Z,99.90
2018-07-15T20:12:31.689Z,99.90
2018-07-15T20:14:59.403Z,99.90
2018-07-15T20:17:27.173Z,99.90
2018-07-15T20:19:54.912Z,99.90
2018-07-15T20:22:22.623Z,99.90
2018-07-15T20:24:50.222Z,99.90
2018-07-15T20:27:17.888Z,99.90
2018-07-15T20:29:45.494Z,99.90
2018-07-15T20:32:13.157Z,99.90
2018-07-15T20:34:40.976Z,99.90
2018-07-15T20:37:08.624Z,99.90
2018-07-15T20:39:36.268Z,99.90
2018-07-15T20:42:03.955Z,99.90
2018-07-15T20:44:31.616Z,99.90
2018-07-15T20:46:59.243Z,99.90
2018-07-15T20:49:26.851Z,99.90
2018-07-15T20:51:55.109Z,99.90
2018-07-15T20:54:22.739Z,99.90
2018-07-15T20:56:50.366Z,99.90
2018-07-15T20:59:17.897Z,99.90
2018-07-15T21:01:45.437Z,99.90
2018-07-15T21:04:12.996Z,99.90
2018-07-15T21:06:40.585Z,99.90
2018-07-15T21:09:08.159Z,99.90
2018-07-15T21:11:35.714Z,99.90
2018-07-15T21:14:03.245Z,99.90
2018-07-15T21:16:30.779Z,99.90
2018-07-15T21:18:58.501Z,99.90
2018-07-15T21:21:26.104Z,99.90
2018-07-15T21:23:53.618Z,99.90
2018-07-15T21:26:21.132Z,99.90
2018-07-15T21:28:48.637Z,99.90
2018-07-15T21:31:16.187Z,99.90
2018-07-15T21:33:43.777Z,99.90
2018-07-15T21:36:11.331Z,99.90
2018-07-15T21:38:38.904Z,99.90
2018-07-15T21:41:06.461Z,99.90
2018-07-15T21:43:34.051Z,99.90
2018-07-15T21:46:01.606Z,99.90
2018-07-15T21:48:29.190Z,99.90
2018-07-15T21:50:56.771Z,99.90
2018-07-15T21:53:24.445Z,99.90
2018-07-15T21:55:52.071Z,99.90
2018-07-15T22:00:47.127Z,99.90
2018-07-15T22:03:14.724Z,99.90
2018-07-15T22:05:43.385Z,99.90
2018-07-15T22:08:22.207Z,99.90
2018-07-15T22:10:49.785Z,99.90
2018-07-15T22:13:17.386Z,99.90
2018-07-15T22:15:44.923Z,99.90
2018-07-15T22:18:12.473Z,99.90
2018-07-15T22:20:40.068Z,99.90
2018-07-15T22:23:08.257Z,99.90
2018-07-15T22:25:35.847Z,99.90
2018-07-15T22:28:03.537Z,99.90
2018-07-15T22:30:31.111Z,99.90
2018-07-15T22:32:58.698Z,99.90
2018-07-15T22:35:26.291Z,99.90
2018-07-15T22:37:53.879Z,99.90
2018-07-15T22:40:21.510Z,99.90
2018-07-15T22:42:49.111Z,99.90
2018-07-15T22:45:16.637Z,99.90
2018-07-15T22:47:44.233Z,99.90
2018-07-15T22:50:11.759Z,99.90
2018-07-15T22:52:39.364Z,99.90
2018-07-15T22:55:06.952Z,99.90
2018-07-15T22:57:34.502Z,99.90
2018-07-15T23:00:02.067Z,99.90
2018-07-15T23:02:29.655Z,99.90
2018-07-15T23:05:36.443Z,99.90
2018-07-15T23:08:04.657Z,99.90
2018-07-15T23:10:32.212Z,99.90
2018-07-15T23:12:59.986Z,99.90
2018-07-15T23:15:27.613Z,99.90
2018-07-15T23:17:55.205Z,99.90
2018-07-15T23:20:22.757Z,99.90
2018-07-15T23:22:50.476Z,99.90
2018-07-15T23:25:18.129Z,99.90
2018-07-15T23:27:45.672Z,99.90
2018-07-15T23:30:13.258Z,99.90
2018-07-15T23:32:40.815Z,99.90
2018-07-15T23:35:08.386Z,99.90
2018-07-15T23:37:36.035Z,99.90
2018-07-15T23:40:03.643Z,99.90
2018-07-15T23:42:31.166Z,99.90
2018-07-15T23:44:58.695Z,99.90
2018-07-15T23:47:26.240Z,99.90
2018-07-15T23:49:53.791Z,99.90
2018-07-15T23:52:21.360Z,99.90
2018-07-15T23:54:48.894Z,99.90
2018-07-15T23:57:16.404Z,99.90
2018-07-15T23:59:43.957Z,99.90
